Centennial, Colorado
Current Conditions -  °F | °C
As of 7:58 PM on Tuesday 21 Oct 2014 (Local Time) from KBKF Reporting Station
Broken Clouds Broken Clouds  
Wind Chill: 61°   Ceiling: 12000
Heat Index: 61°   Visibility: 10mi
Dew Point: 40°   Wind: 3mph
Humidity: 46%   Direction: 120°ESE
Pressure: 29.95"   Gusts: NA
Location:  39.6608°N, 104.835°W
Report Text: KBKF 220158Z 12003KT 10SM FEW070 BKN120 BKN220 16/04 A2995 RMK AO2A SLP091 T01600042
Loading
Personal Weather Stations






























Interactive Weather Map
Tropical Storm Tracking
New forecast layout! Learn more

10-Day Weather Forecast

Advertisements
Track Severe Weather on mobile